sensor_id;sensor_type;location;lat;lon;timestamp;P1;durP1;ratioP1;P2;durP2;ratioP2
52102;SDS011;38101;53.126;6.878;2022-10-16T00:01:35;5.25;;;2.20;;
52102;SDS011;38101;53.126;6.878;2022-10-16T00:04:02;4.78;;;2.38;;
52102;SDS011;38101;53.126;6.878;2022-10-16T00:06:28;10.40;;;3.30;;
52102;SDS011;38101;53.126;6.878;2022-10-16T00:08:55;7.32;;;2.53;;
52102;SDS011;38101;53.126;6.878;2022-10-16T00:11:32;6.30;;;2.47;;
52102;SDS011;38101;53.126;6.878;2022-10-16T00:14:02;6.10;;;2.50;;
52102;SDS011;38101;53.126;6.878;2022-10-16T00:16:29;4.95;;;2.35;;
52102;SDS011;38101;53.126;6.878;2022-10-16T00:18:56;6.13;;;2.38;;
52102;SDS011;38101;53.126;6.878;2022-10-16T00:21:23;6.28;;;2.60;;
52102;SDS011;38101;53.126;6.878;2022-10-16T00:23:51;6.35;;;2.55;;
52102;SDS011;38101;53.126;6.878;2022-10-16T00:26:28;6.15;;;2.75;;
52102;SDS011;38101;53.126;6.878;2022-10-16T00:28:55;6.75;;;2.50;;
52102;SDS011;38101;53.126;6.878;2022-10-16T00:31:21;7.10;;;2.50;;
52102;SDS011;38101;53.126;6.878;2022-10-16T00:33:48;5.07;;;2.40;;
52102;SDS011;38101;53.126;6.878;2022-10-16T00:36:15;6.10;;;2.60;;
52102;SDS011;38101;53.126;6.878;2022-10-16T00:38:43;4.63;;;2.53;;
52102;SDS011;38101;53.126;6.878;2022-10-16T00:41:11;5.60;;;3.03;;
52102;SDS011;38101;53.126;6.878;2022-10-16T00:43:45;6.05;;;2.40;;
52102;SDS011;38101;53.126;6.878;2022-10-16T00:48:49;5.43;;;2.60;;
52102;SDS011;38101;53.126;6.878;2022-10-16T00:51:36;5.20;;;2.53;;
52102;SDS011;38101;53.126;6.878;2022-10-16T00:54:08;5.40;;;2.30;;
52102;SDS011;38101;53.126;6.878;2022-10-16T00:56:56;6.25;;;2.60;;
52102;SDS011;38101;53.126;6.878;2022-10-16T00:59:26;4.65;;;2.17;;
52102;SDS011;38101;53.126;6.878;2022-10-16T01:01:55;6.72;;;2.47;;
52102;SDS011;38101;53.126;6.878;2022-10-16T01:04:22;6.03;;;2.60;;
52102;SDS011;38101;53.126;6.878;2022-10-16T01:15:27;4.68;;;2.40;;
52102;SDS011;38101;53.126;6.878;2022-10-16T01:18:13;7.95;;;2.50;;
52102;SDS011;38101;53.126;6.878;2022-10-16T01:21:05;5.22;;;2.30;;
52102;SDS011;38101;53.126;6.878;2022-10-16T01:29:11;8.10;;;2.35;;
52102;SDS011;38101;53.126;6.878;2022-10-16T01:32:00;5.30;;;2.20;;
52102;SDS011;38101;53.126;6.878;2022-10-16T01:34:33;5.05;;;2.53;;
52102;SDS011;38101;53.126;6.878;2022-10-16T01:37:14;5.10;;;2.53;;
52102;SDS011;38101;53.126;6.878;2022-10-16T01:39:45;5.20;;;2.30;;
52102;SDS011;38101;53.126;6.878;2022-10-16T01:42:20;4.57;;;2.25;;
52102;SDS011;38101;53.126;6.878;2022-10-16T01:44:50;5.65;;;2.20;;
52102;SDS011;38101;53.126;6.878;2022-10-16T01:47:18;4.47;;;2.60;;
52102;SDS011;38101;53.126;6.878;2022-10-16T01:49:50;4.55;;;2.35;;
52102;SDS011;38101;53.126;6.878;2022-10-16T01:52:19;6.60;;;2.47;;
52102;SDS011;38101;53.126;6.878;2022-10-16T01:54:49;5.80;;;2.22;;
52102;SDS011;38101;53.126;6.878;2022-10-16T01:57:18;5.38;;;2.50;;
52102;SDS011;38101;53.126;6.878;2022-10-16T01:59:50;6.75;;;2.65;;
52102;SDS011;38101;53.126;6.878;2022-10-16T02:02:20;5.93;;;2.60;;
52102;SDS011;38101;53.126;6.878;2022-10-16T02:07:54;3.85;;;2.17;;
52102;SDS011;38101;53.126;6.878;2022-10-16T02:10:20;5.00;;;2.42;;
52102;SDS011;38101;53.126;6.878;2022-10-16T02:12:50;4.18;;;2.60;;
52102;SDS011;38101;53.126;6.878;2022-10-16T02:15:22;6.28;;;2.55;;
52102;SDS011;38101;53.126;6.878;2022-10-16T02:17:48;4.32;;;2.65;;
52102;SDS011;38101;53.126;6.878;2022-10-16T02:20:13;5.60;;;2.65;;
52102;SDS011;38101;53.126;6.878;2022-10-16T02:22:43;5.90;;;2.65;;
52102;SDS011;38101;53.126;6.878;2022-10-16T02:25:15;4.88;;;2.60;;
52102;SDS011;38101;53.126;6.878;2022-10-16T02:30:57;4.78;;;2.50;;
52102;SDS011;38101;53.126;6.878;2022-10-16T02:33:25;6.05;;;2.85;;
52102;SDS011;38101;53.126;6.878;2022-10-16T02:35:52;4.95;;;2.30;;
52102;SDS011;38101;53.126;6.878;2022-10-16T02:38:19;3.97;;;2.47;;
52102;SDS011;38101;53.126;6.878;2022-10-16T02:40:46;6.15;;;2.60;;
52102;SDS011;38101;53.126;6.878;2022-10-16T02:43:12;5.57;;;2.95;;
52102;SDS011;38101;53.126;6.878;2022-10-16T02:45:38;4.70;;;2.78;;
52102;SDS011;38101;53.126;6.878;2022-10-16T02:48:04;6.15;;;2.83;;
52102;SDS011;38101;53.126;6.878;2022-10-16T02:50:30;3.25;;;2.50;;
52102;SDS011;38101;53.126;6.878;2022-10-16T02:52:56;6.75;;;2.90;;
52102;SDS011;38101;53.126;6.878;2022-10-16T02:55:22;6.60;;;2.60;;
52102;SDS011;38101;53.126;6.878;2022-10-16T02:57:48;6.18;;;2.60;;
52102;SDS011;38101;53.126;6.878;2022-10-16T03:00:14;5.40;;;2.47;;
52102;SDS011;38101;53.126;6.878;2022-10-16T03:02:41;6.15;;;2.47;;
52102;SDS011;38101;53.126;6.878;2022-10-16T03:05:08;5.50;;;2.80;;
52102;SDS011;38101;53.126;6.878;2022-10-16T03:07:38;5.57;;;2.70;;
52102;SDS011;38101;53.126;6.878;2022-10-16T03:10:04;5.40;;;3.10;;
52102;SDS011;38101;53.126;6.878;2022-10-16T03:12:31;4.38;;;2.83;;
52102;SDS011;38101;53.126;6.878;2022-10-16T03:14:56;6.68;;;2.70;;
52102;SDS011;38101;53.126;6.878;2022-10-16T03:17:22;5.78;;;2.55;;
52102;SDS011;38101;53.126;6.878;2022-10-16T03:19:49;6.78;;;2.60;;
52102;SDS011;38101;53.126;6.878;2022-10-16T03:22:15;4.90;;;2.45;;
52102;SDS011;38101;53.126;6.878;2022-10-16T03:24:41;4.10;;;2.50;;
52102;SDS011;38101;53.126;6.878;2022-10-16T03:27:08;5.97;;;2.85;;
52102;SDS011;38101;53.126;6.878;2022-10-16T03:29:33;6.63;;;2.83;;
52102;SDS011;38101;53.126;6.878;2022-10-16T03:31:59;7.53;;;2.95;;
52102;SDS011;38101;53.126;6.878;2022-10-16T03:34:25;5.07;;;2.58;;
52102;SDS011;38101;53.126;6.878;2022-10-16T03:36:51;2.85;;;2.10;;
52102;SDS011;38101;53.126;6.878;2022-10-16T03:39:17;5.15;;;2.67;;
52102;SDS011;38101;53.126;6.878;2022-10-16T03:41:44;5.03;;;2.90;;
52102;SDS011;38101;53.126;6.878;2022-10-16T03:44:11;4.80;;;2.58;;
52102;SDS011;38101;53.126;6.878;2022-10-16T03:46:37;4.07;;;2.70;;
52102;SDS011;38101;53.126;6.878;2022-10-16T03:49:02;5.13;;;2.88;;
52102;SDS011;38101;53.126;6.878;2022-10-16T03:51:28;6.88;;;2.83;;
52102;SDS011;38101;53.126;6.878;2022-10-16T03:53:54;4.80;;;2.40;;
52102;SDS011;38101;53.126;6.878;2022-10-16T03:56:19;4.85;;;2.50;;
52102;SDS011;38101;53.126;6.878;2022-10-16T03:58:45;4.88;;;2.70;;
52102;SDS011;38101;53.126;6.878;2022-10-16T04:01:11;6.68;;;2.50;;
52102;SDS011;38101;53.126;6.878;2022-10-16T04:03:37;4.40;;;2.58;;
52102;SDS011;38101;53.126;6.878;2022-10-16T04:06:03;4.75;;;2.25;;
52102;SDS011;38101;53.126;6.878;2022-10-16T04:08:29;6.00;;;2.40;;
52102;SDS011;38101;53.126;6.878;2022-10-16T04:10:54;4.97;;;2.50;;
52102;SDS011;38101;53.126;6.878;2022-10-16T04:13:20;4.63;;;2.58;;
52102;SDS011;38101;53.126;6.878;2022-10-16T04:15:46;3.90;;;2.50;;
52102;SDS011;38101;53.126;6.878;2022-10-16T04:18:12;3.97;;;2.42;;
52102;SDS011;38101;53.126;6.878;2022-10-16T04:20:38;5.35;;;2.70;;
52102;SDS011;38101;53.126;6.878;2022-10-16T04:23:04;6.82;;;2.55;;
52102;SDS011;38101;53.126;6.878;2022-10-16T04:25:30;5.85;;;2.50;;
52102;SDS011;38101;53.126;6.878;2022-10-16T04:27:55;7.90;;;2.72;;
52102;SDS011;38101;53.126;6.878;2022-10-16T04:30:22;5.90;;;2.33;;
52102;SDS011;38101;53.126;6.878;2022-10-16T04:32:48;4.05;;;2.45;;
52102;SDS011;38101;53.126;6.878;2022-10-16T04:35:15;4.50;;;2.38;;
52102;SDS011;38101;53.126;6.878;2022-10-16T04:37:41;4.88;;;2.40;;
52102;SDS011;38101;53.126;6.878;2022-10-16T04:40:07;3.72;;;2.70;;
52102;SDS011;38101;53.126;6.878;2022-10-16T04:42:33;5.63;;;2.70;;
52102;SDS011;38101;53.126;6.878;2022-10-16T04:44:59;4.25;;;2.58;;
52102;SDS011;38101;53.126;6.878;2022-10-16T04:47:27;4.93;;;2.60;;
52102;SDS011;38101;53.126;6.878;2022-10-16T04:49:53;5.43;;;2.63;;
52102;SDS011;38101;53.126;6.878;2022-10-16T04:52:19;4.18;;;2.60;;
52102;SDS011;38101;53.126;6.878;2022-10-16T04:54:46;5.43;;;2.70;;
52102;SDS011;38101;53.126;6.878;2022-10-16T04:57:12;6.97;;;3.00;;
52102;SDS011;38101;53.126;6.878;2022-10-16T04:59:38;4.00;;;2.35;;
52102;SDS011;38101;53.126;6.878;2022-10-16T05:02:03;6.03;;;2.55;;
52102;SDS011;38101;53.126;6.878;2022-10-16T05:04:29;4.10;;;2.67;;
52102;SDS011;38101;53.126;6.878;2022-10-16T05:06:55;5.30;;;2.70;;
52102;SDS011;38101;53.126;6.878;2022-10-16T05:09:21;6.93;;;2.90;;
52102;SDS011;38101;53.126;6.878;2022-10-16T05:11:47;4.68;;;2.70;;
52102;SDS011;38101;53.126;6.878;2022-10-16T05:14:12;5.28;;;2.50;;
52102;SDS011;38101;53.126;6.878;2022-10-16T05:16:38;6.03;;;3.08;;
52102;SDS011;38101;53.126;6.878;2022-10-16T05:19:04;4.53;;;2.55;;
52102;SDS011;38101;53.126;6.878;2022-10-16T05:21:29;5.03;;;2.47;;
52102;SDS011;38101;53.126;6.878;2022-10-16T05:23:55;4.25;;;2.67;;
52102;SDS011;38101;53.126;6.878;2022-10-16T05:26:21;5.28;;;2.70;;
52102;SDS011;38101;53.126;6.878;2022-10-16T05:28:46;3.80;;;2.45;;
52102;SDS011;38101;53.126;6.878;2022-10-16T05:31:12;4.35;;;2.40;;
52102;SDS011;38101;53.126;6.878;2022-10-16T05:33:38;4.88;;;2.70;;
52102;SDS011;38101;53.126;6.878;2022-10-16T05:36:04;4.30;;;2.60;;
52102;SDS011;38101;53.126;6.878;2022-10-16T05:38:32;6.07;;;2.63;;
52102;SDS011;38101;53.126;6.878;2022-10-16T05:41:01;7.47;;;2.90;;
52102;SDS011;38101;53.126;6.878;2022-10-16T05:43:28;4.80;;;2.55;;
52102;SDS011;38101;53.126;6.878;2022-10-16T05:46:03;6.85;;;3.05;;
52102;SDS011;38101;53.126;6.878;2022-10-16T05:48:30;5.80;;;3.25;;
52102;SDS011;38101;53.126;6.878;2022-10-16T05:50:58;4.20;;;2.50;;
52102;SDS011;38101;53.126;6.878;2022-10-16T05:53:33;5.10;;;2.65;;
52102;SDS011;38101;53.126;6.878;2022-10-16T05:55:59;5.00;;;2.60;;
52102;SDS011;38101;53.126;6.878;2022-10-16T05:58:27;4.70;;;2.58;;
52102;SDS011;38101;53.126;6.878;2022-10-16T06:00:55;4.50;;;3.03;;
52102;SDS011;38101;53.126;6.878;2022-10-16T06:03:22;5.00;;;3.10;;
52102;SDS011;38101;53.126;6.878;2022-10-16T06:05:48;5.28;;;2.97;;
52102;SDS011;38101;53.126;6.878;2022-10-16T06:08:14;5.10;;;2.90;;
52102;SDS011;38101;53.126;6.878;2022-10-16T06:10:42;5.03;;;3.42;;
52102;SDS011;38101;53.126;6.878;2022-10-16T06:13:09;6.30;;;2.90;;
52102;SDS011;38101;53.126;6.878;2022-10-16T06:15:35;11.10;;;3.58;;
52102;SDS011;38101;53.126;6.878;2022-10-16T06:18:01;4.50;;;3.00;;
52102;SDS011;38101;53.126;6.878;2022-10-16T06:20:26;6.18;;;3.00;;
52102;SDS011;38101;53.126;6.878;2022-10-16T06:22:52;6.55;;;2.80;;
52102;SDS011;38101;53.126;6.878;2022-10-16T06:25:18;6.53;;;3.20;;
52102;SDS011;38101;53.126;6.878;2022-10-16T06:27:43;5.35;;;3.33;;
52102;SDS011;38101;53.126;6.878;2022-10-16T06:30:09;5.00;;;3.05;;
52102;SDS011;38101;53.126;6.878;2022-10-16T06:32:35;6.72;;;3.25;;
52102;SDS011;38101;53.126;6.878;2022-10-16T06:35:01;6.93;;;3.10;;
52102;SDS011;38101;53.126;6.878;2022-10-16T06:37:26;5.18;;;3.10;;
52102;SDS011;38101;53.126;6.878;2022-10-16T06:39:52;4.75;;;3.05;;
52102;SDS011;38101;53.126;6.878;2022-10-16T06:42:18;5.28;;;3.22;;
52102;SDS011;38101;53.126;6.878;2022-10-16T06:44:44;6.25;;;3.53;;
52102;SDS011;38101;53.126;6.878;2022-10-16T06:47:10;5.40;;;3.25;;
52102;SDS011;38101;53.126;6.878;2022-10-16T06:49:36;5.90;;;3.30;;
52102;SDS011;38101;53.126;6.878;2022-10-16T06:52:01;6.68;;;3.10;;
52102;SDS011;38101;53.126;6.878;2022-10-16T06:54:27;8.07;;;3.22;;
52102;SDS011;38101;53.126;6.878;2022-10-16T06:56:53;5.72;;;3.20;;
52102;SDS011;38101;53.126;6.878;2022-10-16T06:59:22;5.85;;;3.00;;
52102;SDS011;38101;53.126;6.878;2022-10-16T07:01:48;6.40;;;3.00;;
52102;SDS011;38101;53.126;6.878;2022-10-16T07:04:14;5.93;;;3.17;;
52102;SDS011;38101;53.126;6.878;2022-10-16T07:06:39;6.55;;;3.17;;
52102;SDS011;38101;53.126;6.878;2022-10-16T07:09:08;6.60;;;3.53;;
52102;SDS011;38101;53.126;6.878;2022-10-16T07:11:36;12.35;;;3.17;;
52102;SDS011;38101;53.126;6.878;2022-10-16T07:14:03;4.90;;;2.85;;
52102;SDS011;38101;53.126;6.878;2022-10-16T07:16:30;5.43;;;3.05;;
52102;SDS011;38101;53.126;6.878;2022-10-16T07:18:58;4.95;;;2.70;;
52102;SDS011;38101;53.126;6.878;2022-10-16T07:21:25;3.92;;;2.47;;
52102;SDS011;38101;53.126;6.878;2022-10-16T07:23:57;6.53;;;3.03;;
52102;SDS011;38101;53.126;6.878;2022-10-16T07:26:24;7.20;;;2.70;;
52102;SDS011;38101;53.126;6.878;2022-10-16T07:28:51;8.10;;;3.00;;
52102;SDS011;38101;53.126;6.878;2022-10-16T07:31:18;4.60;;;2.88;;
52102;SDS011;38101;53.126;6.878;2022-10-16T07:33:45;4.75;;;2.63;;
52102;SDS011;38101;53.126;6.878;2022-10-16T07:36:12;5.00;;;2.83;;
52102;SDS011;38101;53.126;6.878;2022-10-16T07:38:40;4.57;;;2.47;;
52102;SDS011;38101;53.126;6.878;2022-10-16T07:41:08;6.47;;;3.03;;
52102;SDS011;38101;53.126;6.878;2022-10-16T07:43:39;5.32;;;2.70;;
52102;SDS011;38101;53.126;6.878;2022-10-16T07:46:05;4.78;;;2.85;;
52102;SDS011;38101;53.126;6.878;2022-10-16T07:48:32;4.72;;;2.72;;
52102;SDS011;38101;53.126;6.878;2022-10-16T07:50:59;4.40;;;2.60;;
52102;SDS011;38101;53.126;6.878;2022-10-16T07:53:26;4.43;;;2.65;;
52102;SDS011;38101;53.126;6.878;2022-10-16T07:55:52;6.60;;;2.72;;
52102;SDS011;38101;53.126;6.878;2022-10-16T07:58:22;4.55;;;2.50;;
52102;SDS011;38101;53.126;6.878;2022-10-16T08:00:48;5.57;;;2.90;;
52102;SDS011;38101;53.126;6.878;2022-10-16T08:03:13;7.28;;;2.95;;
52102;SDS011;38101;53.126;6.878;2022-10-16T08:05:39;5.18;;;2.72;;
52102;SDS011;38101;53.126;6.878;2022-10-16T08:08:05;8.10;;;3.05;;
52102;SDS011;38101;53.126;6.878;2022-10-16T08:10:30;9.88;;;3.47;;
52102;SDS011;38101;53.126;6.878;2022-10-16T08:12:56;8.25;;;3.20;;
52102;SDS011;38101;53.126;6.878;2022-10-16T08:15:22;7.30;;;2.83;;
52102;SDS011;38101;53.126;6.878;2022-10-16T08:17:57;5.70;;;2.90;;
52102;SDS011;38101;53.126;6.878;2022-10-16T08:20:25;6.55;;;2.63;;
52102;SDS011;38101;53.126;6.878;2022-10-16T08:22:51;4.03;;;2.58;;
52102;SDS011;38101;53.126;6.878;2022-10-16T08:25:17;4.07;;;2.30;;
52102;SDS011;38101;53.126;6.878;2022-10-16T08:27:43;8.55;;;2.83;;
52102;SDS011;38101;53.126;6.878;2022-10-16T08:30:09;4.70;;;2.33;;
52102;SDS011;38101;53.126;6.878;2022-10-16T08:32:35;11.52;;;3.30;;
52102;SDS011;38101;53.126;6.878;2022-10-16T08:35:01;6.32;;;2.33;;
52102;SDS011;38101;53.126;6.878;2022-10-16T08:37:30;7.28;;;2.80;;
52102;SDS011;38101;53.126;6.878;2022-10-16T08:39:57;7.53;;;3.33;;
52102;SDS011;38101;53.126;6.878;2022-10-16T08:50:36;5.75;;;2.28;;
52102;SDS011;38101;53.126;6.878;2022-10-16T08:53:04;4.97;;;2.25;;
52102;SDS011;38101;53.126;6.878;2022-10-16T08:58:18;3.33;;;1.80;;
52102;SDS011;38101;53.126;6.878;2022-10-16T09:00:50;4.93;;;1.95;;
52102;SDS011;38101;53.126;6.878;2022-10-16T09:11:51;3.47;;;1.90;;
52102;SDS011;38101;53.126;6.878;2022-10-16T09:20:26;7.25;;;2.40;;
52102;SDS011;38101;53.126;6.878;2022-10-16T09:25:49;4.15;;;2.22;;
52102;SDS011;38101;53.126;6.878;2022-10-16T09:28:16;5.60;;;2.15;;
52102;SDS011;38101;53.126;6.878;2022-10-16T09:30:42;5.70;;;2.08;;
52102;SDS011;38101;53.126;6.878;2022-10-16T09:33:09;5.50;;;2.28;;
52102;SDS011;38101;53.126;6.878;2022-10-16T09:35:42;4.30;;;2.15;;
52102;SDS011;38101;53.126;6.878;2022-10-16T09:38:20;8.50;;;2.55;;
52102;SDS011;38101;53.126;6.878;2022-10-16T09:40:54;8.18;;;1.98;;
52102;SDS011;38101;53.126;6.878;2022-10-16T09:49:03;8.85;;;2.50;;
52102;SDS011;38101;53.126;6.878;2022-10-16T09:51:32;5.97;;;2.38;;
52102;SDS011;38101;53.126;6.878;2022-10-16T09:54:01;8.73;;;2.38;;
52102;SDS011;38101;53.126;6.878;2022-10-16T09:56:34;5.75;;;2.15;;
52102;SDS011;38101;53.126;6.878;2022-10-16T09:59:22;4.10;;;2.03;;
52102;SDS011;38101;53.126;6.878;2022-10-16T10:01:53;8.60;;;2.50;;
52102;SDS011;38101;53.126;6.878;2022-10-16T10:04:21;9.73;;;2.60;;
52102;SDS011;38101;53.126;6.878;2022-10-16T10:06:49;8.27;;;2.33;;
52102;SDS011;38101;53.126;6.878;2022-10-16T10:11:51;9.20;;;2.85;;
52102;SDS011;38101;53.126;6.878;2022-10-16T10:16:51;9.13;;;3.38;;
52102;SDS011;38101;53.126;6.878;2022-10-16T10:19:26;8.57;;;2.60;;
52102;SDS011;38101;53.126;6.878;2022-10-16T10:21:52;8.18;;;2.50;;
52102;SDS011;38101;53.126;6.878;2022-10-16T10:24:19;9.88;;;2.60;;
52102;SDS011;38101;53.126;6.878;2022-10-16T10:26:49;8.73;;;2.72;;
52102;SDS011;38101;53.126;6.878;2022-10-16T10:39:55;9.38;;;2.85;;
52102;SDS011;38101;53.126;6.878;2022-10-16T10:42:53;8.02;;;2.60;;
52102;SDS011;38101;53.126;6.878;2022-10-16T10:52:07;9.80;;;2.63;;
52102;SDS011;38101;53.126;6.878;2022-10-16T10:54:26;8.18;;;2.70;;
52102;SDS011;38101;53.126;6.878;2022-10-16T10:57:10;7.35;;;2.35;;
52102;SDS011;38101;53.126;6.878;2022-10-16T11:10:50;8.35;;;2.50;;
52102;SDS011;38101;53.126;6.878;2022-10-16T11:13:44;7.65;;;2.90;;
52102;SDS011;38101;53.126;6.878;2022-10-16T11:16:23;8.32;;;2.80;;
52102;SDS011;38101;53.126;6.878;2022-10-16T11:19:03;7.72;;;2.40;;
52102;SDS011;38101;53.126;6.878;2022-10-16T11:21:47;5.93;;;2.50;;
52102;SDS011;38101;53.126;6.878;2022-10-16T11:24:23;10.93;;;3.17;;
52102;SDS011;38101;53.126;6.878;2022-10-16T11:27:01;8.00;;;2.80;;
52102;SDS011;38101;53.126;6.878;2022-10-16T11:29:33;8.93;;;2.78;;
52102;SDS011;38101;53.126;6.878;2022-10-16T11:32:11;7.80;;;2.53;;
52102;SDS011;38101;53.126;6.878;2022-10-16T11:37:18;6.63;;;2.65;;
52102;SDS011;38101;53.126;6.878;2022-10-16T11:39:50;7.70;;;2.70;;
52102;SDS011;38101;53.126;6.878;2022-10-16T11:42:24;8.25;;;2.70;;
52102;SDS011;38101;53.126;6.878;2022-10-16T11:47:48;11.43;;;2.72;;
52102;SDS011;38101;53.126;6.878;2022-10-16T11:50:33;8.02;;;2.55;;
52102;SDS011;38101;53.126;6.878;2022-10-16T11:56:00;8.65;;;3.05;;
52102;SDS011;38101;53.126;6.878;2022-10-16T12:03:35;6.82;;;2.60;;
52102;SDS011;38101;53.126;6.878;2022-10-16T12:09:02;6.90;;;2.70;;
52102;SDS011;38101;53.126;6.878;2022-10-16T12:16:57;9.05;;;2.60;;
52102;SDS011;38101;53.126;6.878;2022-10-16T12:19:30;10.75;;;2.75;;
52102;SDS011;38101;53.126;6.878;2022-10-16T12:22:00;7.05;;;2.38;;
52102;SDS011;38101;53.126;6.878;2022-10-16T12:24:41;9.80;;;2.95;;
52102;SDS011;38101;53.126;6.878;2022-10-16T12:27:20;6.53;;;2.38;;
52102;SDS011;38101;53.126;6.878;2022-10-16T12:29:55;8.18;;;2.72;;
52102;SDS011;38101;53.126;6.878;2022-10-16T12:32:35;10.65;;;3.05;;
52102;SDS011;38101;53.126;6.878;2022-10-16T12:35:04;9.98;;;3.10;;
52102;SDS011;38101;53.126;6.878;2022-10-16T12:37:33;12.55;;;2.90;;
52102;SDS011;38101;53.126;6.878;2022-10-16T12:40:14;6.18;;;2.50;;
52102;SDS011;38101;53.126;6.878;2022-10-16T12:42:50;7.82;;;2.47;;
52102;SDS011;38101;53.126;6.878;2022-10-16T12:45:49;8.43;;;2.70;;
52102;SDS011;38101;53.126;6.878;2022-10-16T12:48:20;6.47;;;2.45;;
52102;SDS011;38101;53.126;6.878;2022-10-16T12:50:47;7.72;;;2.97;;
52102;SDS011;38101;53.126;6.878;2022-10-16T12:53:17;7.40;;;2.63;;
52102;SDS011;38101;53.126;6.878;2022-10-16T13:01:41;8.70;;;2.40;;
52102;SDS011;38101;53.126;6.878;2022-10-16T13:04:32;7.65;;;2.83;;
52102;SDS011;38101;53.126;6.878;2022-10-16T13:09:49;6.68;;;2.58;;
52102;SDS011;38101;53.126;6.878;2022-10-16T13:12:43;10.75;;;2.63;;
52102;SDS011;38101;53.126;6.878;2022-10-16T13:18:15;7.53;;;2.30;;
52102;SDS011;38101;53.126;6.878;2022-10-16T13:27:02;7.13;;;2.60;;
52102;SDS011;38101;53.126;6.878;2022-10-16T13:30:17;6.53;;;2.05;;
52102;SDS011;38101;53.126;6.878;2022-10-16T13:32:50;9.15;;;2.28;;
52102;SDS011;38101;53.126;6.878;2022-10-16T13:35:24;7.65;;;2.35;;
52102;SDS011;38101;53.126;6.878;2022-10-16T13:38:02;8.32;;;2.30;;
52102;SDS011;38101;53.126;6.878;2022-10-16T13:40:29;8.02;;;2.67;;
52102;SDS011;38101;53.126;6.878;2022-10-16T13:42:55;5.60;;;2.05;;
52102;SDS011;38101;53.126;6.878;2022-10-16T13:45:23;11.55;;;2.63;;
52102;SDS011;38101;53.126;6.878;2022-10-16T13:48:04;9.35;;;2.72;;
52102;SDS011;38101;53.126;6.878;2022-10-16T13:50:37;5.55;;;2.03;;
52102;SDS011;38101;53.126;6.878;2022-10-16T13:53:06;5.93;;;2.30;;
52102;SDS011;38101;53.126;6.878;2022-10-16T13:55:38;5.40;;;2.30;;
52102;SDS011;38101;53.126;6.878;2022-10-16T13:58:07;7.72;;;2.33;;
52102;SDS011;38101;53.126;6.878;2022-10-16T14:00:38;10.50;;;2.17;;
52102;SDS011;38101;53.126;6.878;2022-10-16T14:03:05;8.00;;;2.17;;
52102;SDS011;38101;53.126;6.878;2022-10-16T14:05:54;8.07;;;2.00;;
52102;SDS011;38101;53.126;6.878;2022-10-16T14:08:31;6.95;;;2.22;;
52102;SDS011;38101;53.126;6.878;2022-10-16T14:11:01;6.68;;;2.00;;
52102;SDS011;38101;53.126;6.878;2022-10-16T14:13:31;7.97;;;2.22;;
52102;SDS011;38101;53.126;6.878;2022-10-16T14:16:06;7.30;;;2.10;;
52102;SDS011;38101;53.126;6.878;2022-10-16T14:18:34;8.75;;;2.45;;
52102;SDS011;38101;53.126;6.878;2022-10-16T14:21:07;6.30;;;2.13;;
52102;SDS011;38101;53.126;6.878;2022-10-16T14:23:39;6.90;;;2.05;;
52102;SDS011;38101;53.126;6.878;2022-10-16T14:26:16;7.25;;;1.92;;
52102;SDS011;38101;53.126;6.878;2022-10-16T14:28:44;5.00;;;2.20;;
52102;SDS011;38101;53.126;6.878;2022-10-16T14:31:29;6.28;;;2.00;;
52102;SDS011;38101;53.126;6.878;2022-10-16T14:33:59;6.05;;;2.15;;
52102;SDS011;38101;53.126;6.878;2022-10-16T14:36:26;8.30;;;2.15;;
52102;SDS011;38101;53.126;6.878;2022-10-16T14:41:47;8.38;;;3.30;;
52102;SDS011;38101;53.126;6.878;2022-10-16T14:46:43;7.13;;;2.28;;
52102;SDS011;38101;53.126;6.878;2022-10-16T14:51:39;5.60;;;2.00;;
52102;SDS011;38101;53.126;6.878;2022-10-16T14:54:14;7.38;;;2.10;;
52102;SDS011;38101;53.126;6.878;2022-10-16T14:56:54;5.63;;;2.08;;
52102;SDS011;38101;53.126;6.878;2022-10-16T14:59:38;6.97;;;2.55;;
52102;SDS011;38101;53.126;6.878;2022-10-16T15:04:51;14.15;;;3.20;;
52102;SDS011;38101;53.126;6.878;2022-10-16T15:07:17;9.82;;;2.78;;
52102;SDS011;38101;53.126;6.878;2022-10-16T15:09:45;10.10;;;2.55;;
52102;SDS011;38101;53.126;6.878;2022-10-16T15:12:11;6.05;;;2.40;;
52102;SDS011;38101;53.126;6.878;2022-10-16T15:14:37;10.85;;;2.45;;
52102;SDS011;38101;53.126;6.878;2022-10-16T15:17:04;9.20;;;2.55;;
52102;SDS011;38101;53.126;6.878;2022-10-16T15:19:29;5.57;;;2.35;;
52102;SDS011;38101;53.126;6.878;2022-10-16T15:21:55;10.38;;;2.53;;
52102;SDS011;38101;53.126;6.878;2022-10-16T15:24:27;4.75;;;2.17;;
52102;SDS011;38101;53.126;6.878;2022-10-16T15:26:53;20.60;;;3.78;;
52102;SDS011;38101;53.126;6.878;2022-10-16T15:29:19;6.63;;;2.20;;
52102;SDS011;38101;53.126;6.878;2022-10-16T15:31:45;11.57;;;2.85;;
52102;SDS011;38101;53.126;6.878;2022-10-16T15:34:12;8.93;;;2.65;;
52102;SDS011;38101;53.126;6.878;2022-10-16T15:36:44;11.15;;;2.60;;
52102;SDS011;38101;53.126;6.878;2022-10-16T15:39:17;9.10;;;3.03;;
52102;SDS011;38101;53.126;6.878;2022-10-16T15:41:45;9.98;;;3.35;;
52102;SDS011;38101;53.126;6.878;2022-10-16T15:44:19;10.52;;;2.92;;
52102;SDS011;38101;53.126;6.878;2022-10-16T15:46:48;7.63;;;2.40;;
52102;SDS011;38101;53.126;6.878;2022-10-16T15:49:14;8.35;;;2.60;;
52102;SDS011;38101;53.126;6.878;2022-10-16T15:51:42;9.85;;;3.03;;
52102;SDS011;38101;53.126;6.878;2022-10-16T15:54:09;6.40;;;2.30;;
52102;SDS011;38101;53.126;6.878;2022-10-16T15:56:35;9.27;;;2.90;;
52102;SDS011;38101;53.126;6.878;2022-10-16T15:59:02;10.50;;;2.70;;
52102;SDS011;38101;53.126;6.878;2022-10-16T16:01:28;7.60;;;2.47;;
52102;SDS011;38101;53.126;6.878;2022-10-16T16:03:59;9.23;;;2.60;;
52102;SDS011;38101;53.126;6.878;2022-10-16T16:06:24;11.75;;;3.00;;
52102;SDS011;38101;53.126;6.878;2022-10-16T16:08:51;8.30;;;2.67;;
52102;SDS011;38101;53.126;6.878;2022-10-16T16:11:19;10.80;;;3.20;;
52102;SDS011;38101;53.126;6.878;2022-10-16T16:13:48;8.35;;;2.45;;
52102;SDS011;38101;53.126;6.878;2022-10-16T16:16:15;8.57;;;3.25;;
52102;SDS011;38101;53.126;6.878;2022-10-16T16:18:42;8.45;;;3.65;;
52102;SDS011;38101;53.126;6.878;2022-10-16T16:21:10;10.85;;;3.65;;
52102;SDS011;38101;53.126;6.878;2022-10-16T16:23:37;9.40;;;3.70;;
52102;SDS011;38101;53.126;6.878;2022-10-16T16:28:39;13.02;;;3.80;;
52102;SDS011;38101;53.126;6.878;2022-10-16T16:31:05;12.30;;;3.65;;
52102;SDS011;38101;53.126;6.878;2022-10-16T16:33:31;12.57;;;4.20;;
52102;SDS011;38101;53.126;6.878;2022-10-16T16:35:58;11.98;;;4.10;;
52102;SDS011;38101;53.126;6.878;2022-10-16T16:38:25;11.73;;;3.88;;
52102;SDS011;38101;53.126;6.878;2022-10-16T16:40:52;11.60;;;3.88;;
52102;SDS011;38101;53.126;6.878;2022-10-16T16:43:18;7.70;;;2.95;;
52102;SDS011;38101;53.126;6.878;2022-10-16T16:45:44;8.40;;;3.08;;
52102;SDS011;38101;53.126;6.878;2022-10-16T16:48:10;7.15;;;2.97;;
52102;SDS011;38101;53.126;6.878;2022-10-16T16:50:36;8.57;;;3.10;;
52102;SDS011;38101;53.126;6.878;2022-10-16T16:53:02;5.75;;;2.65;;
52102;SDS011;38101;53.126;6.878;2022-10-16T16:55:28;7.40;;;2.92;;
52102;SDS011;38101;53.126;6.878;2022-10-16T16:57:54;7.90;;;2.55;;
52102;SDS011;38101;53.126;6.878;2022-10-16T17:00:22;12.07;;;2.80;;
52102;SDS011;38101;53.126;6.878;2022-10-16T17:02:48;9.40;;;2.90;;
52102;SDS011;38101;53.126;6.878;2022-10-16T17:05:14;7.18;;;3.20;;
52102;SDS011;38101;53.126;6.878;2022-10-16T17:07:40;9.23;;;2.95;;
52102;SDS011;38101;53.126;6.878;2022-10-16T17:10:06;10.98;;;3.47;;
52102;SDS011;38101;53.126;6.878;2022-10-16T17:12:35;9.65;;;3.70;;
52102;SDS011;38101;53.126;6.878;2022-10-16T17:15:01;8.32;;;3.53;;
52102;SDS011;38101;53.126;6.878;2022-10-16T17:17:27;10.10;;;4.55;;
52102;SDS011;38101;53.126;6.878;2022-10-16T17:19:53;11.73;;;4.30;;
52102;SDS011;38101;53.126;6.878;2022-10-16T17:22:19;8.77;;;3.90;;